Time;durP1;ratioP1;P1;durP2;ratioP2;P2;SDS_P1;SDS_P2;PMS_P1;PMS_P2;Temp;Humidity;BMP_temperature;BMP_pressure;BME280_temperature;BME280_humidity;BME280_pressure;Samples;Min_cycle;Max_cycle;Signal;HPM_P1;HPM_P2
2024/02/26 00:01:45;;;;;;;6.27;5.03;;;9.10;99.90;;;;;;4935012;29;20180;-62
2024/02/26 00:04:12;;;;;;;7.80;6.07;;;9.20;99.90;;;;;;4934624;29;20260;-62
2024/02/26 00:06:41;;;;;;;6.10;5.20;;;9.20;99.90;;;;;;4934942;29;20764;-62
2024/02/26 00:09:07;;;;;;;6.40;5.33;;;9.20;99.90;;;;;;4936280;29;20442;-62
2024/02/26 00:11:34;;;;;;;5.13;4.73;;;9.20;99.90;;;;;;4938758;29;20487;-62
2024/02/26 00:14:00;;;;;;;10.63;5.67;;;9.20;99.90;;;;;;4921467;29;20424;-62
2024/02/26 00:16:26;;;;;;;9.83;5.20;;;9.30;99.90;;;;;;4937873;29;20415;-62
2024/02/26 00:18:52;;;;;;;5.90;3.80;;;9.20;99.90;;;;;;4938369;29;20206;-62
2024/02/26 00:21:17;;;;;;;4.47;4.07;;;9.20;99.90;;;;;;4937707;29;20326;-62
2024/02/26 00:23:43;;;;;;;4.63;4.10;;;9.20;99.90;;;;;;4921254;29;20591;-62
2024/02/26 00:26:10;;;;;;;4.50;4.10;;;9.20;99.90;;;;;;4937663;29;20215;-62
2024/02/26 00:28:36;;;;;;;4.10;3.80;;;9.20;99.90;;;;;;4937704;29;20222;-62
2024/02/26 00:31:02;;;;;;;4.30;3.90;;;9.20;99.90;;;;;;4952686;29;20437;-62
2024/02/26 00:33:28;;;;;;;4.20;4.00;;;9.20;99.90;;;;;;4937391;29;20454;-62
2024/02/26 00:35:54;;;;;;;5.17;3.70;;;9.00;99.90;;;;;;4905279;29;20451;-62
2024/02/26 00:38:20;;;;;;;6.13;3.97;;;9.10;99.90;;;;;;4952270;29;20415;-62
2024/02/26 00:40:46;;;;;;;3.97;3.67;;;9.10;99.90;;;;;;4937896;29;20454;-62
2024/02/26 00:43:12;;;;;;;3.53;3.23;;;9.10;99.90;;;;;;4937341;29;20828;-62
2024/02/26 00:45:38;;;;;;;5.23;4.00;;;9.10;99.90;;;;;;4937943;29;20408;-62
2024/02/26 00:48:05;;;;;;;4.20;3.90;;;9.00;99.90;;;;;;4937948;29;20477;-62
2024/02/26 00:50:36;;;;;;;4.90;3.90;;;9.00;99.90;;;;;;4937264;29;20178;-62
2024/02/26 00:53:02;;;;;;;4.00;3.60;;;9.00;99.90;;;;;;4937526;29;20783;-62
2024/02/26 00:55:28;;;;;;;5.00;4.00;;;9.00;99.90;;;;;;4937091;29;20420;-62
2024/02/26 00:57:54;;;;;;;4.93;4.43;;;9.00;99.90;;;;;;4937663;29;20316;-62
2024/02/26 01:00:19;;;;;;;5.30;4.80;;;9.00;99.90;;;;;;4936990;29;20234;-62
2024/02/26 01:02:48;;;;;;;5.47;4.50;;;9.00;99.90;;;;;;4937882;29;20182;-62
2024/02/26 01:05:16;;;;;;;5.33;4.53;;;9.00;99.90;;;;;;4937043;29;20422;-62
2024/02/26 01:07:42;;;;;;;3.00;2.80;;;9.10;99.90;;;;;;4937176;29;20413;-62
2024/02/26 01:10:08;;;;;;;4.70;3.97;;;9.10;99.90;;;;;;4937393;29;20422;-62
2024/02/26 01:12:34;;;;;;;5.50;4.00;;;9.10;99.90;;;;;;4937403;29;20238;-62
2024/02/26 01:15:04;;;;;;;3.63;3.30;;;9.20;99.90;;;;;;4952198;29;20412;-62
2024/02/26 01:17:29;;;;;;;2.97;2.77;;;9.20;99.90;;;;;;4951458;29;20417;-62
2024/02/26 01:19:56;;;;;;;3.20;3.00;;;9.10;99.90;;;;;;4936901;29;20486;-62
2024/02/26 01:22:22;;;;;;;4.00;3.60;;;9.20;99.90;;;;;;4935483;29;20181;-62
2024/02/26 01:24:48;;;;;;;2.60;2.50;;;9.20;99.90;;;;;;4937266;29;20402;-62
2024/02/26 01:27:16;;;;;;;2.97;2.77;;;9.20;99.90;;;;;;4919145;29;20991;-62
2024/02/26 01:29:42;;;;;;;2.97;2.87;;;9.20;99.90;;;;;;4937135;29;20428;-62
2024/02/26 01:32:08;;;;;;;5.13;4.63;;;9.20;99.90;;;;;;4937070;29;20485;-62
2024/02/26 01:34:34;;;;;;;3.17;3.00;;;9.20;99.90;;;;;;4936447;29;20509;-62
2024/02/26 01:37:00;;;;;;;3.00;2.80;;;9.20;99.90;;;;;;4937007;29;20807;-62
2024/02/26 01:39:28;;;;;;;2.97;2.80;;;9.20;99.90;;;;;;4936296;29;20198;-62
2024/02/26 01:41:54;;;;;;;3.20;2.83;;;9.20;99.90;;;;;;4936971;29;20427;-62
2024/02/26 01:44:21;;;;;;;3.40;3.10;;;9.20;99.90;;;;;;4918995;29;20770;-62
2024/02/26 01:46:47;;;;;;;3.30;3.10;;;9.20;99.90;;;;;;4936502;29;20170;-62
2024/02/26 01:49:14;;;;;;;3.40;3.20;;;9.20;99.90;;;;;;4936251;29;20409;-62
2024/02/26 01:51:42;;;;;;;3.67;3.33;;;9.30;99.90;;;;;;4936748;29;20414;-62
2024/02/26 01:54:08;;;;;;;3.20;3.00;;;9.30;99.90;;;;;;4951381;29;20768;-62
2024/02/26 01:56:36;;;;;;;3.50;3.30;;;9.40;99.90;;;;;;4935791;29;20412;-62
2024/02/26 01:59:03;;;;;;;3.70;3.50;;;9.30;99.90;;;;;;4936117;29;20477;-62
2024/02/26 02:01:31;;;;;;;3.30;3.03;;;9.30;99.90;;;;;;4918803;29;20418;-62
2024/02/26 02:03:59;;;;;;;3.70;3.40;;;9.20;99.90;;;;;;4919554;29;20419;-62
2024/02/26 02:06:25;;;;;;;3.30;3.10;;;9.20;99.90;;;;;;4935823;29;20429;-62
2024/02/26 02:08:51;;;;;;;3.30;3.10;;;9.30;99.90;;;;;;4936118;29;20415;-62
2024/02/26 02:11:17;;;;;;;3.80;3.60;;;9.20;99.90;;;;;;4902907;29;20422;-62
2024/02/26 02:13:43;;;;;;;3.53;3.23;;;9.10;99.90;;;;;;4936613;29;20182;-62
2024/02/26 02:16:09;;;;;;;3.30;3.10;;;9.10;99.90;;;;;;4936359;29;20479;-62
2024/02/26 02:18:35;;;;;;;3.73;3.53;;;8.90;99.90;;;;;;4935603;29;20927;-62
2024/02/26 02:21:01;;;;;;;2.80;2.60;;;8.60;99.90;;;;;;4950836;29;20547;-62
2024/02/26 02:23:27;;;;;;;2.87;2.77;;;8.60;99.90;;;;;;4935531;29;20423;-62
2024/02/26 02:25:54;;;;;;;3.60;3.40;;;8.70;99.90;;;;;;4936350;29;20421;-62
2024/02/26 02:28:21;;;;;;;3.27;3.07;;;8.70;99.90;;;;;;4935362;29;20305;-62
2024/02/26 02:30:48;;;;;;;3.37;3.17;;;8.70;99.90;;;;;;4935417;29;20476;-62
2024/02/26 02:33:15;;;;;;;3.47;3.17;;;8.70;99.90;;;;;;4910547;29;20819;-63
2024/02/26 02:35:41;;;;;;;3.40;3.20;;;8.70;99.90;;;;;;4935921;29;20824;-62
2024/02/26 02:38:07;;;;;;;2.90;2.70;;;8.50;99.90;;;;;;4936126;29;20417;-62
2024/02/26 02:40:32;;;;;;;3.43;3.20;;;8.20;99.90;;;;;;4918084;29;20541;-62
2024/02/26 02:42:59;;;;;;;2.87;2.70;;;8.30;99.90;;;;;;4918723;29;20210;-62
2024/02/26 02:45:25;;;;;;;3.00;2.80;;;8.50;99.90;;;;;;4935174;29;20421;-62
2024/02/26 02:47:51;;;;;;;2.73;2.63;;;8.50;99.90;;;;;;4935796;29;20401;-62
2024/02/26 02:50:17;;;;;;;2.60;2.50;;;8.30;99.90;;;;;;4949845;29;20761;-62
2024/02/26 02:52:42;;;;;;;3.00;2.80;;;8.20;99.90;;;;;;4903015;29;20183;-62
2024/02/26 02:55:08;;;;;;;3.30;3.10;;;8.30;99.90;;;;;;4950480;29;20643;-62
2024/02/26 02:57:34;;;;;;;3.10;2.97;;;8.20;99.90;;;;;;4934987;29;20186;-62
2024/02/26 03:00:00;;;;;;;3.00;2.80;;;8.10;99.90;;;;;;4935599;29;20245;-62
2024/02/26 03:02:25;;;;;;;3.20;2.97;;;8.20;99.90;;;;;;4934950;29;20185;-62
2024/02/26 03:04:51;;;;;;;2.63;2.53;;;8.10;99.90;;;;;;4918502;29;20181;-62
2024/02/26 03:07:17;;;;;;;4.03;3.23;;;8.20;99.90;;;;;;4917967;29;20622;-63
2024/02/26 03:09:43;;;;;;;3.07;2.87;;;;;;;;;;4935472;29;20417;-62
2024/02/26 03:12:09;;;;;;;3.13;2.93;;;8.10;99.90;;;;;;4935428;29;20525;-62
2024/02/26 03:14:35;;;;;;;3.10;2.90;;;8.10;99.90;;;;;;4934839;29;20409;-62
2024/02/26 03:17:01;;;;;;;3.20;3.10;;;8.20;99.90;;;;;;4935182;29;20228;-62
2024/02/26 03:19:26;;;;;;;2.87;2.70;;;8.40;99.90;;;;;;4949209;29;20214;-61
2024/02/26 03:21:52;;;;;;;3.70;3.40;;;8.50;99.90;;;;;;4935604;29;20417;-62
2024/02/26 03:24:18;;;;;;;4.10;3.40;;;8.60;99.90;;;;;;4934606;29;20190;-62
2024/02/26 03:26:44;;;;;;;4.03;3.73;;;8.60;99.90;;;;;;4949740;29;20190;-62
2024/02/26 03:29:10;;;;;;;5.07;4.00;;;8.70;99.90;;;;;;4934920;29;20229;-62
2024/02/26 03:31:36;;;;;;;4.73;4.10;;;8.80;99.90;;;;;;4949265;29;20178;-62
2024/02/26 03:34:02;;;;;;;5.10;4.70;;;8.70;99.90;;;;;;4935203;29;20413;-62
2024/02/26 03:36:27;;;;;;;4.10;3.70;;;8.70;99.90;;;;;;4933268;29;20371;-62
2024/02/26 03:38:53;;;;;;;4.33;3.93;;;8.70;99.90;;;;;;4935253;29;20770;-62
2024/02/26 03:41:19;;;;;;;5.40;4.90;;;8.80;99.90;;;;;;4934549;29;20270;-62
2024/02/26 03:43:45;;;;;;;5.40;4.90;;;8.80;99.90;;;;;;4953065;28;20539;-61
2024/02/26 03:46:13;;;;;;;5.60;5.10;;;8.80;99.90;;;;;;4939013;29;20175;-62
2024/02/26 03:48:40;;;;;;;6.90;5.37;;;8.80;99.90;;;;;;4938336;29;20443;-62
2024/02/26 03:51:06;;;;;;;6.10;5.20;;;8.80;99.90;;;;;;4938916;29;20824;-62
2024/02/26 03:53:31;;;;;;;6.87;5.70;;;8.90;99.90;;;;;;4938311;29;20453;-62
2024/02/26 03:55:57;;;;;;;5.27;4.77;;;8.80;99.90;;;;;;4938919;29;20174;-62
2024/02/26 03:58:23;;;;;;;5.00;4.60;;;8.80;99.90;;;;;;4938247;29;20174;-62
2024/02/26 04:00:49;;;;;;;8.23;5.80;;;8.80;99.90;;;;;;4938754;29;20213;-62
2024/02/26 04:03:14;;;;;;;5.70;5.20;;;8.80;99.90;;;;;;4938689;29;20786;-62
2024/02/26 04:05:40;;;;;;;4.40;4.00;;;8.80;99.90;;;;;;4938056;29;20171;-62
2024/02/26 04:08:07;;;;;;;4.03;3.73;;;8.80;99.90;;;;;;4938593;29;20678;-62
2024/02/26 04:10:38;;;;;;;4.37;3.97;;;8.80;99.90;;;;;;4937660;29;20266;-62
2024/02/26 04:13:05;;;;;;;5.17;4.50;;;8.90;99.90;;;;;;4938690;29;20408;-62
2024/02/26 04:15:31;;;;;;;5.67;3.80;;;8.80;99.90;;;;;;4937822;29;20413;-62
2024/02/26 04:17:57;;;;;;;4.53;4.20;;;8.80;99.90;;;;;;4938266;29;20409;-62
2024/02/26 04:20:22;;;;;;;3.90;3.70;;;8.80;99.90;;;;;;4937699;29;20457;-62
2024/02/26 04:22:48;;;;;;;4.27;3.97;;;8.90;99.90;;;;;;4938174;29;20189;-62
2024/02/26 04:25:14;;;;;;;4.50;4.10;;;8.80;99.90;;;;;;4938008;29;20278;-62
2024/02/26 04:27:40;;;;;;;3.90;3.60;;;8.80;99.90;;;;;;4937536;29;20441;-62
2024/02/26 04:30:07;;;;;;;3.57;3.27;;;8.70;99.90;;;;;;4938189;29;20498;-62
2024/02/26 04:32:34;;;;;;;3.60;3.40;;;8.40;99.90;;;;;;4937521;29;20233;-62
2024/02/26 04:35:00;;;;;;;3.53;3.33;;;8.30;99.90;;;;;;4938150;29;20496;-62
2024/02/26 04:37:30;;;;;;;3.57;3.37;;;8.30;99.90;;;;;;4937455;29;20422;-62
2024/02/26 04:40:01;;;;;;;3.47;3.20;;;8.10;99.90;;;;;;4937971;29;20453;-62
2024/02/26 04:42:27;;;;;;;3.73;3.53;;;8.10;99.90;;;;;;4937763;29;20476;-62
2024/02/26 04:44:54;;;;;;;6.20;5.73;;;8.20;99.90;;;;;;4938002;29;20422;-62
2024/02/26 04:47:22;;;;;;;3.10;2.90;;;8.30;99.90;;;;;;4938001;29;20429;-62
2024/02/26 04:49:51;;;;;;;4.50;4.10;;;8.20;99.90;;;;;;4937548;29;20487;-62
2024/02/26 04:52:18;;;;;;;2.50;2.40;;;8.20;99.90;;;;;;4937885;29;20485;-62
2024/02/26 04:54:44;;;;;;;4.73;4.43;;;8.30;99.90;;;;;;4936568;29;20398;-60
2024/02/26 04:57:10;;;;;;;3.63;3.43;;;8.30;99.90;;;;;;4937622;29;20805;-60
2024/02/26 04:59:35;;;;;;;4.13;3.83;;;8.10;99.90;;;;;;4937024;29;20470;-61
2024/02/26 05:02:01;;;;;;;6.27;5.87;;;8.30;99.90;;;;;;4937858;29;20189;-60
2024/02/26 05:04:27;;;;;;;4.00;3.80;;;8.40;99.90;;;;;;4936825;29;20182;-61
2024/02/26 05:06:53;;;;;;;4.50;4.10;;;8.50;99.90;;;;;;4937686;29;20174;-61
2024/02/26 05:09:19;;;;;;;3.30;3.10;;;8.50;99.90;;;;;;4937580;29;20524;-61
2024/02/26 05:11:45;;;;;;;3.60;3.30;;;;;;;;;;4919892;29;20409;-61
2024/02/26 05:14:10;;;;;;;3.07;2.97;;;8.30;99.90;;;;;;4937432;29;20174;-60
2024/02/26 05:16:36;;;;;;;5.63;4.53;;;8.30;99.90;;;;;;4936729;29;20506;-60
2024/02/26 05:19:03;;;;;;;4.50;4.30;;;8.30;99.90;;;;;;4937412;29;20175;-60
2024/02/26 05:21:29;;;;;;;7.40;6.70;;;8.30;99.90;;;;;;4936750;29;20201;-60
2024/02/26 05:23:55;;;;;;;3.73;3.53;;;8.40;99.90;;;;;;4937265;29;20451;-60
2024/02/26 05:26:22;;;;;;;3.40;3.17;;;8.30;99.90;;;;;;4937269;29;20504;-60
2024/02/26 05:28:47;;;;;;;5.60;5.30;;;8.40;99.90;;;;;;4936643;29;20308;-60
2024/02/26 05:31:14;;;;;;;7.10;6.70;;;8.40;99.90;;;;;;4937218;29;20896;-60
2024/02/26 05:33:40;;;;;;;4.80;4.50;;;8.50;99.90;;;;;;4936259;29;20425;-60
2024/02/26 05:36:06;;;;;;;4.90;4.50;;;8.40;99.90;;;;;;4936792;29;20410;-60
2024/02/26 05:38:32;;;;;;;5.40;4.90;;;8.50;99.90;;;;;;4936415;29;20433;-60
2024/02/26 05:40:58;;;;;;;7.80;5.70;;;8.50;99.90;;;;;;4936884;29;20837;-60
2024/02/26 05:43:28;;;;;;;6.23;5.13;;;8.50;99.90;;;;;;4937004;29;20220;-60
2024/02/26 05:45:54;;;;;;;6.43;5.83;;;8.40;99.90;;;;;;4936914;29;20414;-60
2024/02/26 05:48:20;;;;;;;6.10;5.50;;;8.40;99.90;;;;;;4936686;29;21016;-62
2024/02/26 05:50:46;;;;;;;6.87;5.30;;;8.40;99.90;;;;;;4936244;29;20182;-60
2024/02/26 05:53:12;;;;;;;7.03;6.33;;;8.60;99.90;;;;;;4951549;29;20414;-61
2024/02/26 05:55:38;;;;;;;6.70;5.57;;;8.40;99.90;;;;;;4936111;29;20414;-62
2024/02/26 05:58:04;;;;;;;6.20;5.60;;;8.30;99.90;;;;;;4936775;29;20193;-62
2024/02/26 06:00:30;;;;;;;5.67;5.07;;;8.30;99.90;;;;;;4935963;29;20211;-62
2024/02/26 06:02:55;;;;;;;6.97;6.57;;;8.40;99.90;;;;;;4936233;29;20419;-62
2024/02/26 06:05:21;;;;;;;4.70;4.23;;;8.30;99.90;;;;;;4936082;29;20265;-62
2024/02/26 06:07:47;;;;;;;5.20;4.60;;;;;;;;;;4935156;29;20185;-62
2024/02/26 06:10:16;;;;;;;7.60;6.90;;;8.20;99.90;;;;;;4936192;29;20187;-60
2024/02/26 06:12:42;;;;;;;6.40;5.90;;;8.20;99.90;;;;;;4935815;29;20421;-62
2024/02/26 06:15:09;;;;;;;6.37;5.00;;;8.20;99.90;;;;;;4936483;29;20410;-62
2024/02/26 06:17:34;;;;;;;6.60;6.00;;;8.10;99.90;;;;;;4935766;29;20580;-62
2024/02/26 06:20:01;;;;;;;7.40;6.80;;;8.10;99.90;;;;;;4936217;29;20460;-62
2024/02/26 06:22:27;;;;;;;5.93;5.00;;;8.20;99.90;;;;;;4936396;29;20181;-62
2024/02/26 06:24:52;;;;;;;6.63;4.60;;;8.20;99.90;;;;;;4950983;29;20406;-60
2024/02/26 06:27:18;;;;;;;6.07;5.47;;;8.10;99.90;;;;;;4935766;29;20561;-62
2024/02/26 06:29:44;;;;;;;6.67;5.77;;;7.20;99.90;;;;;;4935499;29;20197;-62
2024/02/26 06:32:10;;;;;;;6.17;5.00;;;8.20;99.90;;;;;;4936203;29;20228;-62
2024/02/26 06:34:35;;;;;;;6.80;4.80;;;8.10;99.90;;;;;;4934851;29;20643;-62
2024/02/26 06:37:06;;;;;;;5.37;4.87;;;8.20;99.90;;;;;;4935610;29;20276;-62
2024/02/26 06:39:32;;;;;;;5.60;5.10;;;8.20;99.90;;;;;;4935390;29;20205;-62
2024/02/26 06:42:00;;;;;;;5.47;4.97;;;8.40;99.90;;;;;;4950671;29;20882;-62
2024/02/26 06:44:31;;;;;;;5.00;4.60;;;8.20;99.90;;;;;;4935871;29;20177;-62
2024/02/26 06:46:59;;;;;;;5.97;5.47;;;8.20;99.90;;;;;;4935861;29;20502;-62
2024/02/26 06:49:24;;;;;;;6.73;5.70;;;8.40;99.90;;;;;;4935607;29;20421;-62
2024/02/26 06:51:51;;;;;;;6.00;5.50;;;;;;;;;;4935116;29;20807;-61
2024/02/26 06:54:16;;;;;;;4.30;4.00;;;8.30;99.90;;;;;;4935649;29;20217;-62
2024/02/26 06:56:42;;;;;;;5.13;4.70;;;8.20;99.90;;;;;;4935101;29;20406;-62
2024/02/26 06:59:08;;;;;;;4.97;4.60;;;8.20;99.90;;;;;;4935762;29;20488;-62
2024/02/26 07:01:34;;;;;;;4.93;4.57;;;7.90;99.90;;;;;;4949641;29;20690;-62
2024/02/26 07:04:00;;;;;;;5.07;4.67;;;7.50;99.90;;;;;;4935617;29;20224;-62
2024/02/26 07:06:27;;;;;;;4.20;4.00;;;7.50;99.90;;;;;;4935642;29;20595;-62
2024/02/26 07:08:53;;;;;;;4.70;4.30;;;7.60;99.90;;;;;;4934942;29;20437;-62
2024/02/26 07:11:19;;;;;;;4.97;4.57;;;7.70;99.90;;;;;;4935494;29;20437;-62
2024/02/26 07:13:49;;;;;;;4.43;4.13;;;7.80;99.90;;;;;;4949352;29;20413;-62
2024/02/26 07:16:21;;;;;;;5.50;4.23;;;7.90;99.90;;;;;;4935007;29;20449;-62
2024/02/26 07:18:47;;;;;;;5.00;4.70;;;7.80;99.90;;;;;;4934384;29;20445;-62
2024/02/26 07:21:12;;;;;;;4.63;4.23;;;7.60;99.90;;;;;;4950090;29;20476;-61
2024/02/26 07:23:38;;;;;;;4.80;4.40;;;7.70;99.90;;;;;;4934790;29;20182;-62
2024/02/26 07:26:04;;;;;;;5.37;4.90;;;7.70;99.90;;;;;;4918634;29;20208;-62
2024/02/26 07:28:30;;;;;;;4.30;4.00;;;7.70;99.90;;;;;;4935201;29;20279;-62
2024/02/26 07:30:56;;;;;;;4.80;4.40;;;7.80;99.90;;;;;;4934954;29;20182;-62
2024/02/26 07:33:21;;;;;;;4.87;4.50;;;7.70;99.90;;;;;;4935275;29;20174;-62
2024/02/26 07:35:47;;;;;;;4.40;4.00;;;7.70;99.90;;;;;;4934699;29;20420;-62
2024/02/26 07:38:14;;;;;;;4.57;4.27;;;7.70;99.90;;;;;;4950026;29;20170;-62
2024/02/26 07:40:39;;;;;;;4.83;4.43;;;7.70;99.90;;;;;;4917549;29;20821;-62
2024/02/26 07:43:05;;;;;;;4.67;4.27;;;7.60;99.90;;;;;;4935095;29;20427;-62
2024/02/26 07:45:31;;;;;;;5.10;4.60;;;7.60;99.90;;;;;;4935063;29;20260;-62
2024/02/26 07:47:56;;;;;;;4.40;4.07;;;7.60;99.90;;;;;;4934207;29;20225;-62
2024/02/26 07:50:22;;;;;;;5.20;4.80;;;7.80;99.90;;;;;;4918256;29;20604;-62
2024/02/26 07:52:48;;;;;;;5.70;5.10;;;7.90;99.90;;;;;;4934378;29;20178;-62
2024/02/26 07:55:14;;;;;;;5.00;4.50;;;8.00;99.90;;;;;;4935104;29;20174;-62
2024/02/26 07:57:43;;;;;;;5.00;4.50;;;8.10;99.90;;;;;;4934294;29;20414;-62
2024/02/26 08:00:09;;;;;;;10.33;7.80;;;8.20;99.90;;;;;;4935151;29;20205;-68
2024/02/26 08:02:36;;;;;;;5.60;5.20;;;8.70;99.90;;;;;;4934393;29;20423;-68
2024/02/26 08:05:02;;;;;;;5.90;5.40;;;9.50;99.90;;;;;;4935092;29;20417;-68
2024/02/26 08:07:28;;;;;;;6.27;5.57;;;9.70;99.90;;;;;;4934773;29;20484;-68
2024/02/26 08:09:54;;;;;;;7.17;6.60;;;10.00;99.90;;;;;;4934413;29;20901;-68
2024/02/26 08:12:20;;;;;;;16.73;11.77;;;10.50;99.90;;;;;;4934949;29;20170;-68
2024/02/26 08:14:46;;;;;;;12.80;9.73;;;11.10;99.90;;;;;;4934338;29;20530;-68
2024/02/26 08:17:12;;;;;;;9.00;7.47;;;11.70;99.90;;;;;;4934929;29;20769;-68
2024/02/26 08:19:37;;;;;;;10.33;8.80;;;12.20;99.90;;;;;;4934292;29;20454;-68
2024/02/26 08:22:03;;;;;;;27.07;19.17;;;12.60;99.90;;;;;;4934831;29;20192;-68
2024/02/26 08:24:29;;;;;;;12.60;9.90;;;13.00;99.90;;;;;;4934874;29;20547;-68
2024/02/26 08:26:55;;;;;;;9.93;8.83;;;13.30;99.90;;;;;;4948535;29;20239;-65
2024/02/26 08:29:20;;;;;;;124.27;73.30;;;13.50;99.90;;;;;;4935722;29;20272;-69
2024/02/26 08:31:46;;;;;;;35.73;23.07;;;13.80;99.90;;;;;;4937707;29;20581;-67
2024/02/26 08:34:12;;;;;;;38.23;25.67;;;14.20;99.90;;;;;;4938492;29;20173;-66
2024/02/26 08:36:38;;;;;;;15.00;10.63;;;14.30;99.90;;;;;;4937533;29;20429;-67
2024/02/26 08:39:03;;;;;;;10.90;9.83;;;14.50;99.90;;;;;;4938164;29;20192;-67
2024/02/26 08:41:29;;;;;;;57.20;35.97;;;14.60;99.90;;;;;;4938029;29;20212;-67
2024/02/26 08:43:55;;;;;;;136.43;79.73;;;14.70;99.90;;;;;;4937397;29;20661;-67
2024/02/26 08:46:21;;;;;;;10.10;9.07;;;14.70;99.90;;;;;;4937761;29;20199;-67
2024/02/26 08:48:47;;;;;;;37.10;24.70;;;14.80;99.90;;;;;;4937409;29;20271;-67
2024/02/26 08:51:13;;;;;;;19.27;15.43;;;14.90;99.90;;;;;;4937899;29;20418;-67
2024/02/26 08:53:39;;;;;;;11.57;9.17;;;15.00;99.90;;;;;;4936098;29;20177;-67
2024/02/26 08:56:05;;;;;;;56.53;32.77;;;15.10;99.90;;;;;;4952421;29;20457;-67
2024/02/26 08:58:31;;;;;;;131.43;68.60;;;15.10;99.90;;;;;;4937887;29;20425;-68
2024/02/26 09:00:57;;;;;;;8.73;7.87;;;15.10;99.90;;;;;;4937052;29;20466;-64
2024/02/26 09:03:23;;;;;;;7.23;6.53;;;15.10;98.80;;;;;;4952200;29;20186;-64
2024/02/26 09:05:49;;;;;;;5.73;5.23;;;14.50;96.30;;;;;;4936760;29;20481;-63
2024/02/26 09:08:15;;;;;;;6.43;5.30;;;13.60;97.20;;;;;;4920240;29;20413;-63
2024/02/26 09:10:41;;;;;;;5.80;5.30;;;12.90;98.80;;;;;;4936925;29;20521;-64
2024/02/26 09:13:07;;;;;;;6.63;5.77;;;12.30;99.90;;;;;;4937223;29;20180;-64
2024/02/26 09:15:33;;;;;;;6.07;5.57;;;11.90;99.90;;;;;;4937495;29;20498;-64
2024/02/26 09:17:59;;;;;;;6.50;5.90;;;11.50;99.90;;;;;;4936764;29;20192;-64
2024/02/26 09:20:24;;;;;;;9.10;7.10;;;11.10;99.90;;;;;;4937466;29;20568;-64
2024/02/26 09:22:50;;;;;;;6.33;5.73;;;10.90;99.90;;;;;;4936751;29;20631;-64
2024/02/26 09:25:17;;;;;;;6.43;5.90;;;10.70;99.90;;;;;;4937328;29;20709;-64
2024/02/26 09:27:43;;;;;;;6.53;5.93;;;10.40;99.90;;;;;;4936196;29;20225;-64
2024/02/26 09:30:10;;;;;;;6.20;5.60;;;10.30;99.90;;;;;;4936921;29;20771;-64
2024/02/26 09:32:36;;;;;;;5.63;5.13;;;10.10;99.90;;;;;;4936376;29;20915;-64
2024/02/26 09:35:07;;;;;;;6.00;5.57;;;9.90;99.90;;;;;;4919021;29;20480;-64
2024/02/26 09:37:34;;;;;;;5.97;5.47;;;9.90;99.90;;;;;;4937218;29;20237;-64
2024/02/26 09:40:00;;;;;;;5.83;5.33;;;9.80;99.90;;;;;;4936256;29;20451;-63
2024/02/26 09:42:27;;;;;;;5.30;4.90;;;9.70;99.90;;;;;;4936957;29;20466;-64
2024/02/26 09:44:59;;;;;;;6.10;5.60;;;9.60;99.90;;;;;;4936382;29;20448;-64
2024/02/26 09:47:28;;;;;;;6.57;5.97;;;9.60;99.90;;;;;;4936947;29;20439;-64
2024/02/26 09:49:56;;;;;;;6.93;6.27;;;9.50;99.90;;;;;;4936269;29;20418;-64
2024/02/26 09:52:24;;;;;;;8.60;6.60;;;9.50;99.90;;;;;;4919744;29;20417;-63
2024/02/26 09:54:49;;;;;;;6.17;5.67;;;9.50;99.90;;;;;;4936100;29;20403;-64
2024/02/26 09:57:17;;;;;;;6.33;5.73;;;9.30;99.90;;;;;;4936692;29;20424;-64
2024/02/26 09:59:43;;;;;;;6.40;5.33;;;9.30;99.90;;;;;;4936077;29;20457;-64
2024/02/26 10:02:12;;;;;;;6.37;5.70;;;9.30;99.90;;;;;;4936593;29;20423;-64
2024/02/26 10:04:41;;;;;;;5.90;5.33;;;9.30;99.90;;;;;;4936555;29;20407;-64
2024/02/26 10:07:12;;;;;;;6.20;5.80;;;9.30;99.90;;;;;;4936733;29;20413;-63
2024/02/26 10:09:38;;;;;;;6.17;5.67;;;9.10;99.90;;;;;;4936419;29;20522;-64
2024/02/26 10:12:10;;;;;;;6.03;5.47;;;8.90;99.90;;;;;;4935854;29;20466;-64
2024/02/26 10:14:36;;;;;;;5.80;5.30;;;8.90;99.90;;;;;;4936358;29;20474;-64
2024/02/26 10:17:02;;;;;;;6.27;5.73;;;9.00;99.90;;;;;;4935485;29;20917;-64
2024/02/26 10:19:30;;;;;;;5.93;5.53;;;9.20;99.90;;;;;;4936419;29;20199;-64
2024/02/26 10:22:00;;;;;;;6.33;5.83;;;9.20;99.90;;;;;;4935685;29;20441;-64
2024/02/26 10:24:27;;;;;;;7.87;5.83;;;9.30;99.90;;;;;;4936229;29;20422;-64
2024/02/26 10:26:54;;;;;;;6.90;6.17;;;9.30;99.90;;;;;;4935272;29;20416;-64
2024/02/26 10:29:21;;;;;;;6.63;6.03;;;9.40;99.90;;;;;;4936082;29;20415;-64
2024/02/26 10:31:48;;;;;;;6.97;6.37;;;9.40;99.90;;;;;;4935191;29;20939;-64
2024/02/26 10:34:15;;;;;;;6.37;5.60;;;9.30;99.90;;;;;;4936300;29;20411;-64
2024/02/26 10:36:42;;;;;;;7.60;6.83;;;9.30;99.90;;;;;;4936037;29;20773;-64
2024/02/26 10:39:08;;;;;;;7.10;6.40;;;9.30;99.90;;;;;;4935736;29;20462;-64
2024/02/26 10:41:34;;;;;;;7.00;6.30;;;9.40;99.90;;;;;;4935819;29;20501;-64
2024/02/26 10:44:00;;;;;;;8.10;7.00;;;9.40;99.90;;;;;;4935273;29;20193;-64
2024/02/26 10:46:26;;;;;;;7.83;6.40;;;9.40;99.90;;;;;;4935929;29;20553;-64
2024/02/26 10:48:53;;;;;;;7.23;6.53;;;9.40;99.90;;;;;;4935234;29;20415;-64
2024/02/26 10:51:27;;;;;;;10.30;7.50;;;9.40;99.90;;;;;;4935475;29;20450;-64
2024/02/26 10:54:04;;;;;;;6.63;6.13;;;9.30;99.90;;;;;;4934654;29;20963;-64
2024/02/26 10:56:33;;;;;;;8.70;7.40;;;9.40;99.90;;;;;;4935729;29;20783;-64
2024/02/26 10:59:00;;;;;;;8.90;7.40;;;9.40;99.90;;;;;;4934685;29;20824;-64
2024/02/26 11:01:29;;;;;;;10.53;8.33;;;9.50;99.90;;;;;;4935451;29;20497;-63
2024/02/26 11:03:55;;;;;;;11.67;8.20;;;9.60;99.90;;;;;;4934700;29;20919;-64
2024/02/26 11:06:22;;;;;;;8.37;7.57;;;9.60;99.90;;;;;;4935644;29;20406;-64
2024/02/26 11:08:50;;;;;;;11.13;9.13;;;9.70;99.90;;;;;;4935008;29;20466;-64
2024/02/26 11:11:19;;;;;;;10.43;8.80;;;9.70;99.90;;;;;;4935274;29;20909;-64
2024/02/26 11:13:50;;;;;;;8.90;7.90;;;9.80;99.90;;;;;;4934699;29;20424;-65
2024/02/26 11:16:23;;;;;;;8.70;7.80;;;9.80;99.90;;;;;;4935647;29;20403;-64
2024/02/26 11:18:49;;;;;;;5.83;4.80;;;9.90;99.90;;;;;;4934853;29;20405;-67
2024/02/26 11:21:38;;;;;;;7.37;6.60;;;10.00;99.90;;;;;;4935457;29;20880;-67
2024/02/26 11:24:08;;;;;;;9.13;8.00;;;10.60;99.90;;;;;;4915873;29;20442;-67
2024/02/26 11:26:38;;;;;;;7.37;6.67;;;11.50;99.90;;;;;;4916467;29;20417;-67
2024/02/26 11:29:07;;;;;;;6.70;6.00;;;12.20;99.90;;;;;;4915940;29;20915;-67
2024/02/26 11:31:33;;;;;;;7.97;7.17;;;12.90;99.90;;;;;;4935377;29;20422;-67
2024/02/26 11:33:59;;;;;;;7.40;6.70;;;13.40;99.90;;;;;;4934711;29;20405;-67
2024/02/26 11:36:25;;;;;;;8.27;7.57;;;13.60;99.90;;;;;;4935292;29;20908;-67
2024/02/26 11:38:52;;;;;;;8.30;7.57;;;13.90;99.90;;;;;;4934703;29;20648;-67
2024/02/26 11:41:18;;;;;;;6.93;6.33;;;14.30;99.90;;;;;;4935158;29;20541;-67
2024/02/26 11:44:02;;;;;;;9.60;8.70;;;14.60;99.90;;;;;;4933739;29;20847;-67
2024/02/26 11:46:31;;;;;;;9.10;8.30;;;14.90;99.90;;;;;;4935047;29;20459;-67
2024/02/26 11:49:02;;;;;;;8.50;7.70;;;15.20;99.90;;;;;;4934458;29;20435;-67
2024/02/26 11:51:33;;;;;;;7.40;6.70;;;15.30;99.90;;;;;;4935037;29;20436;-67
2024/02/26 11:53:58;;;;;;;7.40;6.80;;;15.50;98.80;;;;;;4934573;29;20405;-67
2024/02/26 11:56:29;;;;;;;8.80;7.90;;;15.70;99.80;;;;;;4935107;29;20423;-67
2024/02/26 11:59:10;;;;;;;8.77;7.93;;;15.80;97.50;;;;;;4934858;29;20181;-67
2024/02/26 12:01:48;;;;;;;24.43;18.37;;;15.90;97.90;;;;;;4935051;29;20473;-67
2024/02/26 12:04:26;;;;;;;25.50;18.83;;;16.10;98.10;;;;;;4918706;29;20789;-67
2024/02/26 12:07:00;;;;;;;41.27;27.47;;;16.20;96.70;;;;;;4937818;29;20507;-67
2024/02/26 12:09:36;;;;;;;16.23;13.03;;;16.20;96.00;;;;;;4938685;29;20500;-67
2024/02/26 12:12:09;;;;;;;35.83;26.67;;;16.30;95.50;;;;;;4920246;29;20428;-67
2024/02/26 12:14:52;;;;;;;31.97;22.87;;;16.40;96.10;;;;;;4936022;29;20406;-67
2024/02/26 12:17:25;;;;;;;85.20;56.87;;;16.40;95.20;;;;;;4938153;29;20762;-67
2024/02/26 12:19:53;;;;;;;37.37;28.00;;;16.30;95.60;;;;;;4937173;29;20480;-67
2024/02/26 12:22:19;;;;;;;121.20;80.97;;;16.40;96.20;;;;;;4938143;29;20429;-67
2024/02/26 12:24:45;;;;;;;114.27;77.23;;;16.40;95.00;;;;;;4937896;29;20496;-67
2024/02/26 12:27:11;;;;;;;18.20;13.93;;;16.40;95.80;;;;;;4936508;29;20424;-62
2024/02/26 12:29:37;;;;;;;13.10;10.80;;;16.40;93.00;;;;;;4937734;29;20414;-63
2024/02/26 12:32:06;;;;;;;15.17;13.43;;;15.80;92.90;;;;;;4937582;29;20549;-62
2024/02/26 12:34:32;;;;;;;9.83;8.83;;;15.20;93.80;;;;;;4920769;29;20177;-62
2024/02/26 12:36:58;;;;;;;8.90;8.00;;;14.50;94.50;;;;;;4937525;29;20403;-63
2024/02/26 12:39:24;;;;;;;12.50;10.67;;;13.90;96.70;;;;;;4938193;29;20469;-62
2024/02/26 12:41:50;;;;;;;10.20;8.73;;;13.40;97.30;;;;;;4937607;29;20901;-63
2024/02/26 12:44:25;;;;;;;7.60;6.90;;;12.80;98.30;;;;;;4938403;29;20519;-62
2024/02/26 12:46:51;;;;;;;9.13;8.23;;;12.50;99.90;;;;;;4937481;29;20169;-62
2024/02/26 12:49:17;;;;;;;14.10;10.20;;;12.20;99.90;;;;;;4938081;29;20406;-63
2024/02/26 12:51:45;;;;;;;11.30;8.30;;;12.10;99.90;;;;;;4938001;29;20184;-63